createdAt,value
2016-04-15T00:00:12.723Z,0
2016-04-15T00:01:12.835Z,0
2016-04-15T00:02:12.587Z,0
2016-04-15T00:03:12.949Z,0
2016-04-15T00:04:12.202Z,0
2016-04-15T00:05:12.845Z,0
2016-04-15T00:06:12.770Z,0
2016-04-15T00:07:12.773Z,0
2016-04-15T00:08:12.931Z,0
2016-04-15T00:09:12.778Z,0
2016-04-15T00:10:12.781Z,0
2016-04-15T00:11:13.049Z,0
2016-04-15T00:12:12.802Z,0
2016-04-15T00:13:12.804Z,0
2016-04-15T00:14:12.807Z,0
2016-04-15T00:15:12.919Z,0
2016-04-15T00:16:12.812Z,0
2016-04-15T00:17:12.831Z,0
2016-04-15T00:18:12.974Z,0
2016-04-15T00:19:12.852Z,0
2016-04-15T00:20:13.026Z,0
2016-04-15T00:21:12.857Z,0
2016-04-15T00:22:13.016Z,0
2016-04-15T00:23:12.877Z,0
2016-04-15T00:24:13.177Z,0
2016-04-15T00:25:12.883Z,0
2016-04-15T00:26:12.886Z,0
2016-04-15T00:27:12.889Z,0
2016-04-15T00:28:13.251Z,0
2016-04-15T00:29:12.910Z,0
2016-04-15T00:30:12.928Z,0
2016-04-15T00:31:12.462Z,0
2016-04-15T00:32:12.777Z,0
2016-04-15T00:33:12.922Z,0
2016-04-15T00:34:12.940Z,0
2016-04-15T00:35:13.247Z,0
2016-04-15T00:36:12.937Z,0
2016-04-15T00:37:12.955Z,0
2016-04-15T00:38:13.067Z,0
2016-04-15T00:39:12.960Z,0
2016-04-15T00:40:13.166Z,0
2016-04-15T00:41:12.997Z,0
2016-04-15T00:42:13.078Z,0
2016-04-15T00:43:13.236Z,0
2016-04-15T00:44:12.989Z,0
2016-04-15T00:45:12.992Z,0
2016-04-15T00:46:13.042Z,0
2016-04-15T00:47:12.998Z,0
2016-04-15T00:48:13.017Z,0
2016-04-15T00:49:13.019Z,0
2016-04-15T00:50:13.068Z,0
2016-04-15T00:51:13.025Z,0
2016-04-15T00:52:13.214Z,0
2016-04-15T00:53:13.045Z,0
2016-04-15T00:54:13.063Z,0
2016-04-15T00:55:13.206Z,0
2016-04-15T00:56:13.083Z,0
2016-04-15T00:57:13.055Z,0
2016-04-15T00:58:13.089Z,0
2016-04-15T00:59:13.123Z,0
2016-04-15T01:00:13.094Z,0
2016-04-15T01:01:13.113Z,0
2016-04-15T01:02:13.194Z,0
2016-04-15T01:03:13.103Z,0
2016-04-15T01:04:13.105Z,0
2016-04-15T01:05:13.124Z,0
2016-04-15T01:06:13.173Z,0
2016-04-15T01:07:13.129Z,0
2016-04-15T01:08:13.132Z,0
2016-04-15T01:09:13.135Z,0
2016-04-15T01:10:13.153Z,0
2016-04-15T01:11:12.999Z,0
2016-04-15T01:12:13.142Z,0
2016-04-15T01:13:13.161Z,0
2016-04-15T01:14:13.164Z,0
2016-04-15T01:15:13.166Z,0
2016-04-15T01:16:13.185Z,0
2016-04-15T01:17:13.187Z,0
2016-04-15T01:18:13.190Z,0
2016-04-15T01:19:13.193Z,0
2016-04-15T01:20:13.352Z,0
2016-04-15T01:21:13.214Z,0
2016-04-15T01:22:13.232Z,0
2016-04-15T01:23:13.235Z,0
2016-04-15T01:24:13.581Z,0
2016-04-15T01:25:13.240Z,0
2016-04-15T01:26:13.556Z,0
2016-04-15T01:27:13.246Z,0
2016-04-15T01:28:13.249Z,0
2016-04-15T01:29:13.252Z,0
2016-04-15T01:30:13.363Z,0
2016-04-15T01:31:13.272Z,0
2016-04-15T01:32:13.555Z,0
2016-04-15T01:33:13.324Z,0
2016-04-15T01:34:13.280Z,0
2016-04-15T01:35:13.299Z,0
2016-04-15T01:36:13.285Z,0
2016-04-15T01:37:13.507Z,0
2016-04-15T01:38:13.306Z,0
2016-04-15T01:39:13.293Z,0
2016-04-15T01:40:13.327Z,0
2016-04-15T01:41:13.329Z,0
2016-04-15T01:42:13.427Z,0
2016-04-15T01:43:13.335Z,0
2016-04-15T01:44:13.338Z,0
2016-04-15T01:45:13.357Z,0
2016-04-15T01:46:13.343Z,0
2016-04-15T01:47:13.596Z,0
2016-04-15T01:48:13.364Z,0
2016-04-15T01:49:13.367Z,0
2016-04-15T01:50:13.386Z,0
2016-04-15T01:51:13.372Z,0
2016-04-15T01:52:13.391Z,0
2016-04-15T01:53:13.393Z,0
2016-04-15T01:54:13.614Z,0
2016-04-15T01:55:13.461Z,0
2016-04-15T01:56:13.416Z,0
2016-04-15T01:57:13.420Z,0
2016-04-15T01:58:13.438Z,0
2016-04-15T01:59:13.425Z,0
2016-04-15T02:00:13.460Z,0
2016-04-15T02:01:13.541Z,0
2016-04-15T02:02:13.449Z,0
2016-04-15T02:03:13.546Z,0
2016-04-15T02:04:13.454Z,0
2016-04-15T02:05:13.519Z,0
2016-04-15T02:06:13.476Z,0
2016-04-15T02:07:13.463Z,0
2016-04-15T02:08:13.310Z,0
2016-04-15T02:09:13.484Z,0
2016-04-15T02:10:13.487Z,0
2016-04-15T02:11:13.505Z,0
2016-04-15T02:12:13.507Z,0
2016-04-15T02:13:13.495Z,0
2016-04-15T02:14:13.512Z,0
2016-04-15T02:15:13.500Z,0
2016-04-15T02:16:13.534Z,0
2016-04-15T02:17:13.520Z,0
2016-04-15T02:18:13.539Z,0
2016-04-15T02:19:13.525Z,0
2016-04-15T02:20:13.559Z,0
2016-04-15T02:21:13.531Z,0
2016-04-15T02:22:13.549Z,0
2016-04-15T02:23:13.568Z,0
2016-04-15T02:24:13.586Z,0
2016-04-15T02:25:13.589Z,0
2016-04-15T02:26:13.592Z,0
2016-04-15T02:27:13.594Z,0
2016-04-15T02:28:13.597Z,0
2016-04-15T02:29:13.600Z,0
2016-04-15T02:30:13.633Z,0
2016-04-15T02:31:13.621Z,0
2016-04-15T02:32:13.624Z,0
2016-04-15T02:33:13.626Z,0
2016-04-15T02:34:13.644Z,0
2016-04-15T02:35:13.646Z,0
2016-04-15T02:36:13.634Z,0
2016-04-15T02:37:13.637Z,0
2016-04-15T02:38:13.655Z,0
2016-04-15T02:39:13.643Z,0
2016-04-15T02:40:13.660Z,0
2016-04-15T02:41:13.663Z,0
2016-04-15T02:42:13.682Z,0
2016-04-15T02:43:13.684Z,0
2016-04-15T02:44:13.671Z,0
2016-04-15T02:45:13.751Z,0
2016-04-15T02:46:13.692Z,0
2016-04-15T02:47:13.695Z,0
2016-04-15T02:48:13.714Z,0
2016-04-15T02:49:13.717Z,0
2016-04-15T02:50:13.720Z,0
2016-04-15T02:51:13.722Z,0
2016-04-15T02:52:13.740Z,0
2016-04-15T02:53:13.728Z,0
2016-04-15T02:54:13.745Z,0
2016-04-15T02:55:13.795Z,0
2016-04-15T02:56:13.750Z,0
2016-04-15T02:57:13.784Z,0
2016-04-15T02:58:13.772Z,0
2016-04-15T02:59:13.774Z,0
2016-04-15T03:00:13.074Z,0
2016-04-15T03:01:13.780Z,0
2016-04-15T03:02:13.830Z,0
2016-04-15T03:03:13.785Z,0
2016-04-15T03:04:13.803Z,0
2016-04-15T03:05:13.822Z,0
2016-04-15T03:06:13.793Z,0
2016-04-15T03:07:13.796Z,0
2016-04-15T03:08:13.830Z,0
2016-04-15T03:09:13.832Z,0
2016-04-15T03:10:13.819Z,0
2016-04-15T03:11:13.853Z,0
2016-04-15T03:12:13.856Z,0
2016-04-15T03:13:13.843Z,0
2016-04-15T03:14:13.861Z,0
2016-04-15T03:15:13.989Z,0
2016-04-15T03:16:13.882Z,0
2016-04-15T03:17:13.869Z,0
2016-04-15T03:18:13.887Z,0
2016-04-15T03:19:13.875Z,0
2016-04-15T03:20:13.893Z,0
2016-04-15T03:21:13.896Z,0
2016-04-15T03:22:13.742Z,0
2016-04-15T03:23:13.901Z,0
2016-04-15T03:24:13.920Z,0
2016-04-15T03:25:13.922Z,0
2016-04-15T03:26:13.925Z,0
2016-04-15T03:27:13.927Z,0
2016-04-15T03:28:13.946Z,0
2016-04-15T03:29:13.949Z,0
2016-04-15T03:30:14.061Z,0
2016-04-15T03:31:13.955Z,0
2016-04-15T03:32:13.972Z,0
2016-04-15T03:33:13.960Z,0
2016-04-15T03:34:13.963Z,0
2016-04-15T03:35:13.980Z,0
2016-04-15T03:36:13.983Z,0
2016-04-15T03:37:14.001Z,0
2016-04-15T03:38:13.988Z,0
2016-04-15T03:39:13.991Z,0
2016-04-15T03:40:14.010Z,0
2016-04-15T03:41:14.027Z,0
2016-04-15T03:42:14.015Z,0
2016-04-15T03:43:14.018Z,0
2016-04-15T03:44:14.020Z,0
2016-04-15T03:45:14.148Z,0
2016-04-15T03:46:14.026Z,0
2016-04-15T03:47:14.044Z,0
2016-04-15T03:48:14.031Z,0
2016-04-15T03:49:14.065Z,0
2016-04-15T03:50:14.083Z,0
2016-04-15T03:51:14.054Z,0
2016-04-15T03:52:14.073Z,0
2016-04-15T03:53:14.059Z,0
2016-04-15T03:54:14.078Z,0
2016-04-15T03:55:13.925Z,0
2016-04-15T03:56:14.099Z,0
2016-04-15T03:57:14.102Z,0
2016-04-15T03:58:14.088Z,0
2016-04-15T03:59:14.122Z,0
2016-04-15T04:00:14.110Z,0
2016-04-15T04:01:14.113Z,0
2016-04-15T04:02:14.116Z,0
2016-04-15T04:03:14.118Z,0
2016-04-15T04:04:14.136Z,0
2016-04-15T04:05:14.155Z,0
2016-04-15T04:06:14.141Z,0
2016-04-15T04:07:14.160Z,0
2016-04-15T04:08:14.163Z,0
2016-04-15T04:09:14.165Z,0
2016-04-15T04:10:14.199Z,0
2016-04-15T04:11:14.187Z,0
2016-04-15T04:12:14.190Z,0
2016-04-15T04:13:14.207Z,0
2016-04-15T04:14:14.195Z,0
2016-04-15T04:15:14.213Z,0
2016-04-15T04:16:14.200Z,0
2016-04-15T04:17:14.218Z,0
2016-04-15T04:18:14.221Z,0
2016-04-15T04:19:14.223Z,0
2016-04-15T04:20:14.226Z,0
2016-04-15T04:21:14.260Z,0
2016-04-15T04:22:14.247Z,0
2016-04-15T04:23:14.250Z,0
2016-04-15T04:24:14.252Z,0
2016-04-15T04:25:14.255Z,0
2016-04-15T04:26:14.258Z,0
2016-04-15T04:27:14.261Z,0
2016-04-15T04:28:14.264Z,0
2016-04-15T04:29:14.298Z,0
2016-04-15T04:30:14.284Z,0
2016-04-15T04:31:14.272Z,0
2016-04-15T04:32:14.290Z,0
2016-04-15T04:33:14.292Z,0
2016-04-15T04:34:14.295Z,0
2016-04-15T04:35:14.313Z,0
2016-04-15T04:36:14.316Z,0
2016-04-15T04:37:14.319Z,0
2016-04-15T04:38:14.321Z,0
2016-04-15T04:39:14.324Z,0
2016-04-15T04:40:14.342Z,0
2016-04-15T04:41:14.360Z,0
2016-04-15T04:42:14.363Z,0
2016-04-15T04:43:14.366Z,0
2016-04-15T04:44:14.385Z,0
2016-04-15T04:45:14.371Z,0
2016-04-15T04:46:14.374Z,0
2016-04-15T04:47:14.362Z,0
2016-04-15T04:48:14.395Z,0
2016-04-15T04:49:14.414Z,0
2016-04-15T04:50:14.400Z,0
2016-04-15T04:51:14.403Z,0
2016-04-15T04:52:14.626Z,0
2016-04-15T04:53:15.064Z,0
2016-04-15T04:54:14.425Z,0
2016-04-15T04:55:14.298Z,0
2016-04-15T04:56:14.436Z,0
2016-04-15T04:57:14.453Z,0
2016-04-15T04:58:14.456Z,0
2016-04-15T04:59:14.444Z,0
2016-04-15T05:00:14.478Z,0
2016-04-15T05:01:14.464Z,0
2016-04-15T05:02:14.467Z,0
2016-04-15T05:03:14.470Z,0
2016-04-15T05:04:14.472Z,0
2016-04-15T05:05:14.475Z,0
2016-04-15T05:06:14.508Z,0
2016-04-15T05:07:14.480Z,0
2016-04-15T05:08:14.499Z,0
2016-04-15T05:09:14.532Z,0
2016-04-15T05:10:14.380Z,0
2016-04-15T05:11:14.507Z,0
2016-04-15T05:12:14.525Z,0
2016-04-15T05:13:14.372Z,0
2016-04-15T05:14:14.546Z,0
2016-04-15T05:15:14.549Z,0
2016-04-15T05:16:14.552Z,0
2016-04-15T05:17:14.538Z,0
2016-04-15T05:18:14.557Z,0
2016-04-15T05:19:14.575Z,0
2016-04-15T05:20:14.578Z,0
2016-04-15T05:21:14.581Z,0
2016-04-15T05:22:14.583Z,0
2016-04-15T05:23:14.570Z,0
2016-04-15T05:24:14.589Z,0
2016-04-15T05:25:14.606Z,0
2016-04-15T05:26:14.594Z,0
2016-04-15T05:27:14.597Z,0
2016-04-15T05:28:14.615Z,0
2016-04-15T05:29:14.618Z,0
2016-04-15T05:30:14.620Z,0
2016-04-15T05:31:14.639Z,0
2016-04-15T05:32:14.625Z,0
2016-04-15T05:33:14.628Z,0
2016-04-15T05:34:14.647Z,0
2016-04-15T05:35:14.649Z,0
2016-04-15T05:36:14.669Z,0
2016-04-15T05:37:14.858Z,0
2016-04-15T05:38:14.674Z,0
2016-04-15T05:39:14.677Z,0
2016-04-15T05:40:14.679Z,0
2016-04-15T05:41:14.682Z,0
2016-04-15T05:42:14.684Z,0
2016-04-15T05:43:14.687Z,0
2016-04-15T05:44:14.690Z,0
2016-04-15T05:45:14.707Z,0
2016-04-15T05:46:14.710Z,5
2016-04-15T05:47:14.713Z,5
2016-04-15T05:48:14.762Z,5
2016-04-15T05:49:14.718Z,5
2016-04-15T05:50:14.737Z,0
2016-04-15T05:51:14.739Z,0
2016-04-15T05:52:14.743Z,0
2016-04-15T05:53:14.776Z,0
2016-04-15T05:54:14.763Z,0
2016-04-15T05:55:16.907Z,0
2016-04-15T05:56:14.768Z,0
2016-04-15T05:57:14.787Z,5
2016-04-15T05:58:14.617Z,5
2016-04-15T05:59:14.792Z,5
2016-04-15T06:00:14.795Z,5
2016-04-15T06:01:14.797Z,5
2016-04-15T06:02:14.831Z,5
2016-04-15T06:03:14.818Z,5
2016-04-15T06:04:14.836Z,5
2016-04-15T06:05:14.824Z,5
2016-04-15T06:06:14.826Z,5
2016-04-15T06:07:14.844Z,5
2016-04-15T06:08:14.847Z,5
2016-04-15T06:09:14.850Z,5
2016-04-15T06:10:15.119Z,5
2016-04-15T06:11:14.856Z,5
2016-04-15T06:12:14.858Z,5
2016-04-15T06:13:14.861Z,5
2016-04-15T06:14:14.863Z,5
2016-04-15T06:15:14.866Z,5
2016-04-15T06:16:14.901Z,5
2016-04-15T06:17:14.887Z,5
2016-04-15T06:18:14.906Z,5
2016-04-15T06:19:14.893Z,5
2016-04-15T06:20:14.912Z,5
2016-04-15T06:21:14.919Z,5
2016-04-15T06:22:14.908Z,10
2016-04-15T06:23:14.926Z,10
2016-04-15T06:24:14.945Z,10
2016-04-15T06:25:14.947Z,10
2016-04-15T06:26:14.950Z,10
2016-04-15T06:27:14.952Z,10
2016-04-15T06:28:14.960Z,10
2016-04-15T06:29:14.962Z,10
2016-04-15T06:30:14.965Z,10
2016-04-15T06:31:14.999Z,10
2016-04-15T06:32:14.986Z,10
2016-04-15T06:33:14.989Z,10
2016-04-15T06:34:14.992Z,10
2016-04-15T06:35:14.994Z,10
2016-04-15T06:36:14.997Z,10
2016-04-15T06:37:15.016Z,10
2016-04-15T06:38:15.018Z,10
2016-04-15T06:39:15.037Z,10
2016-04-15T06:40:15.039Z,10
2016-04-15T06:41:15.042Z,10
2016-04-15T06:42:15.029Z,10
2016-04-15T06:43:15.031Z,10
2016-04-15T06:44:15.050Z,10
2016-04-15T06:45:15.052Z,10
2016-04-15T06:46:14.930Z,10
2016-04-15T06:47:15.073Z,10
2016-04-15T06:48:15.075Z,10
2016-04-15T06:49:15.079Z,5
2016-04-15T06:50:15.081Z,5
2016-04-15T06:51:15.084Z,5
2016-04-15T06:52:14.947Z,10
2016-04-15T06:53:15.089Z,15
2016-04-15T06:54:15.092Z,15
2016-04-15T06:55:15.110Z,15
2016-04-15T06:56:15.113Z,15
2016-04-15T06:57:15.116Z,20
2016-04-15T06:58:15.135Z,20
2016-04-15T06:59:15.122Z,20
2016-04-15T07:00:15.141Z,20
2016-04-15T07:01:15.283Z,15
2016-04-15T07:02:15.146Z,15
2016-04-15T07:03:15.148Z,15
2016-04-15T07:04:15.151Z,15
2016-04-15T07:05:15.154Z,15
2016-04-15T07:06:15.171Z,15
2016-04-15T07:07:15.190Z,15
2016-04-15T07:08:15.193Z,20
2016-04-15T07:09:15.195Z,20
2016-04-15T07:10:15.198Z,20
2016-04-15T07:11:15.215Z,20
2016-04-15T07:12:15.218Z,20
2016-04-15T07:13:15.206Z,20
2016-04-15T07:14:15.224Z,20
2016-04-15T07:15:15.227Z,20
2016-04-15T07:16:15.339Z,20
2016-04-15T07:17:15.217Z,20
2016-04-15T07:18:15.235Z,20
2016-04-15T07:19:15.238Z,20
2016-04-15T07:20:15.256Z,20
2016-04-15T07:21:15.247Z,20
2016-04-15T07:22:15.266Z,20
2016-04-15T07:23:15.285Z,20
2016-04-15T07:24:15.287Z,20
2016-04-15T07:25:15.274Z,20
2016-04-15T07:26:15.292Z,20
2016-04-15T07:27:15.654Z,20
2016-04-15T07:28:15.304Z,20
2016-04-15T07:29:15.587Z,20
2016-04-15T07:30:15.309Z,20
2016-04-15T07:31:15.218Z,20
2016-04-15T07:32:15.314Z,20
2016-04-15T07:33:15.332Z,20
2016-04-15T07:34:15.319Z,20
2016-04-15T07:35:15.368Z,20
2016-04-15T07:36:15.356Z,20
2016-04-15T07:37:15.342Z,15
2016-04-15T07:38:15.720Z,20
2016-04-15T07:39:15.364Z,20
2016-04-15T07:40:15.366Z,20
2016-04-15T07:41:15.370Z,20
2016-04-15T07:42:15.387Z,20
2016-04-15T07:43:15.640Z,20
2016-04-15T07:44:15.237Z,20
2016-04-15T07:45:15.411Z,20
2016-04-15T07:46:15.648Z,20
2016-04-15T07:47:15.619Z,20
2016-04-15T07:48:15.419Z,15
2016-04-15T07:49:15.438Z,15
2016-04-15T07:50:15.690Z,15
2016-04-15T07:51:15.443Z,15
2016-04-15T07:52:15.757Z,15
2016-04-15T07:53:15.651Z,15
2016-04-15T07:54:15.451Z,15
2016-04-15T07:55:15.468Z,15
2016-04-15T07:56:15.472Z,15
2016-04-15T07:57:15.474Z,15
2016-04-15T07:58:15.837Z,15
2016-04-15T07:59:15.495Z,10
2016-04-15T08:00:15.795Z,10
2016-04-15T08:01:15.657Z,10
2016-04-15T08:02:15.800Z,10
2016-04-15T08:03:15.506Z,10
2016-04-15T08:04:15.665Z,10
2016-04-15T08:05:15.668Z,10
2016-04-15T08:06:15.515Z,10
2016-04-15T08:07:15.534Z,10
2016-04-15T08:08:15.692Z,10
2016-04-15T08:09:15.789Z,10
2016-04-15T08:10:15.556Z,10
2016-04-15T08:11:15.762Z,10
2016-04-15T08:12:15.562Z,10
2016-04-15T08:13:15.564Z,10
2016-04-15T08:14:15.677Z,10
2016-04-15T08:15:15.929Z,10
2016-04-15T08:16:15.698Z,10
2016-04-15T08:17:15.606Z,10
2016-04-15T08:18:15.594Z,10
2016-04-15T08:19:15.862Z,10
2016-04-15T08:20:15.599Z,10
2016-04-15T08:21:15.623Z,10
2016-04-15T08:22:15.673Z,10
2016-04-15T08:23:15.628Z,10
2016-04-15T08:24:15.834Z,10
2016-04-15T08:25:15.649Z,10
2016-04-15T08:26:15.855Z,10
2016-04-15T08:27:15.717Z,10
2016-04-15T08:28:15.672Z,10
2016-04-15T08:29:15.973Z,10
2016-04-15T08:30:15.678Z,10
2016-04-15T08:31:15.936Z,10
2016-04-15T08:32:15.731Z,10
2016-04-15T08:33:15.776Z,10
2016-04-15T08:34:29.993Z,10
2016-04-15T08:35:15.883Z,15
2016-04-15T08:36:16.175Z,15
2016-04-15T08:37:15.959Z,15
2016-04-15T08:38:15.977Z,15
2016-04-15T08:39:15.979Z,15
2016-04-15T08:40:16.060Z,15
2016-04-15T08:41:16.030Z,15
2016-04-15T08:42:16.288Z,15
2016-04-15T08:43:16.296Z,15
2016-04-15T08:44:16.070Z,15
2016-04-15T08:45:16.078Z,15
2016-04-15T08:46:16.726Z,15
2016-04-15T08:47:16.247Z,15
2016-04-15T08:48:16.110Z,15
2016-04-15T08:49:16.115Z,15
2016-04-15T08:50:16.135Z,15
2016-04-15T08:51:16.218Z,15
2016-04-15T08:52:16.144Z,15
2016-04-15T08:53:16.365Z,15
2016-04-15T08:54:16.182Z,15
2016-04-15T08:55:16.154Z,15
2016-04-15T08:56:16.219Z,15
2016-04-15T08:57:16.175Z,15
2016-04-15T08:58:16.194Z,15
2016-04-15T08:59:16.338Z,15
2016-04-15T09:00:16.215Z,15
2016-04-15T09:01:16.203Z,15
2016-04-15T09:02:16.206Z,20
2016-04-15T09:03:16.224Z,20
2016-04-15T09:04:30.399Z,20
2016-04-15T09:05:16.246Z,20
2016-04-15T09:06:16.498Z,15
2016-04-15T09:07:16.579Z,15
2016-04-15T09:08:16.253Z,15
2016-04-15T09:09:16.256Z,15
2016-04-15T09:10:16.259Z,15
2016-04-15T09:11:16.277Z,20
2016-04-15T09:12:16.295Z,20
2016-04-15T09:13:16.157Z,20
2016-04-15T09:14:16.644Z,20
2016-04-15T09:15:16.288Z,20
2016-04-15T09:16:16.603Z,20
2016-04-15T09:17:16.434Z,20
2016-04-15T09:18:16.343Z,15
2016-04-15T09:19:16.330Z,15
2016-04-15T09:20:16.176Z,15
2016-04-15T09:21:16.476Z,15
2016-04-15T09:22:16.338Z,15
2016-04-15T09:23:16.716Z,15
2016-04-15T09:24:16.390Z,15
2016-04-15T09:25:16.363Z,15
2016-04-15T09:26:16.380Z,15
2016-04-15T09:27:16.289Z,15
2016-04-15T09:28:16.698Z,15
2016-04-15T09:29:16.435Z,15
2016-04-15T09:30:16.391Z,15
2016-04-15T09:31:16.409Z,15
2016-04-15T09:32:16.521Z,15
2016-04-15T09:33:16.414Z,20
2016-04-15T09:34:16.464Z,20
2016-04-15T09:35:16.420Z,20
2016-04-15T09:36:16.438Z,25
2016-04-15T09:37:16.441Z,25
2016-04-15T09:38:16.537Z,25
2016-04-15T09:39:16.493Z,25
2016-04-15T09:40:16.464Z,25
2016-04-15T09:41:16.467Z,25
2016-04-15T09:42:16.501Z,25
2016-04-15T09:43:16.488Z,20
2016-04-15T09:44:16.475Z,20
2016-04-15T09:45:16.493Z,20
2016-04-15T09:46:16.496Z,20
2016-04-15T09:47:16.483Z,25
2016-04-15T09:48:16.627Z,25
2016-04-15T09:49:16.520Z,25
2016-04-15T09:50:16.632Z,20
2016-04-15T09:51:16.525Z,20
2016-04-15T09:52:16.684Z,20
2016-04-15T09:53:16.671Z,20
2016-04-15T09:54:16.565Z,25
2016-04-15T09:55:30.739Z,25
2016-04-15T09:56:16.571Z,25
2016-04-15T09:57:16.574Z,25
2016-04-15T09:58:16.638Z,25
2016-04-15T09:59:16.750Z,25
2016-04-15T10:00:16.596Z,25
2016-04-15T10:01:16.630Z,25
2016-04-15T10:02:16.601Z,25
2016-04-15T10:03:16.635Z,25
2016-04-15T10:04:16.763Z,30
2016-04-15T10:05:16.640Z,30
2016-04-15T10:06:16.737Z,30
2016-04-15T10:07:16.646Z,30
2016-04-15T10:08:16.743Z,25
2016-04-15T10:09:16.652Z,20
2016-04-15T10:10:16.654Z,20
2016-04-15T10:11:16.657Z,20
2016-04-15T10:12:16.847Z,20
2016-04-15T10:13:16.881Z,20
2016-04-15T10:14:16.697Z,20
2016-04-15T10:15:16.714Z,20
2016-04-15T10:16:16.749Z,20
2016-04-15T10:17:16.719Z,20
2016-04-15T10:18:16.707Z,15
2016-04-15T10:19:16.710Z,15
2016-04-15T10:20:16.838Z,15
2016-04-15T10:21:16.731Z,15
2016-04-15T10:22:16.733Z,15
2016-04-15T10:23:16.736Z,15
2016-04-15T10:24:16.754Z,15
2016-04-15T10:25:16.773Z,15
2016-04-15T10:26:16.776Z,15
2016-04-15T10:27:16.779Z,15
2016-04-15T10:28:16.782Z,15
2016-04-15T10:29:16.785Z,20
2016-04-15T10:30:16.787Z,20
2016-04-15T10:31:17.993Z,20
2016-04-15T10:32:16.807Z,20
2016-04-15T10:33:16.826Z,20
2016-04-15T10:34:16.828Z,20
2016-04-15T10:35:16.831Z,20
2016-04-15T10:36:16.834Z,20
2016-04-15T10:37:16.851Z,15
2016-04-15T10:38:16.840Z,15
2016-04-15T10:39:16.857Z,20
2016-04-15T10:40:16.876Z,20
2016-04-15T10:41:16.862Z,20
2016-04-15T10:42:16.865Z,25
2016-04-15T10:43:16.884Z,20
2016-04-15T10:44:16.870Z,25
2016-04-15T10:45:16.889Z,25
2016-04-15T10:46:16.922Z,30
2016-04-15T10:47:16.910Z,25
2016-04-15T10:48:16.913Z,25
2016-04-15T10:49:16.915Z,20
2016-04-15T10:50:16.950Z,25
2016-04-15T10:51:16.936Z,30
2016-04-15T10:52:16.955Z,30
2016-04-15T10:53:16.941Z,30
2016-04-15T10:54:16.960Z,30
2016-04-15T10:55:16.963Z,35
2016-04-15T10:56:16.810Z,35
2016-04-15T10:57:16.985Z,30
2016-04-15T10:58:16.988Z,25
2016-04-15T10:59:16.990Z,25
2016-04-15T11:00:17.008Z,25
2016-04-15T11:01:17.011Z,30
2016-04-15T11:02:17.013Z,30
2016-04-15T11:03:17.016Z,30
2016-04-15T11:04:17.034Z,30
2016-04-15T11:05:17.037Z,30
2016-04-15T11:06:17.054Z,30
2016-04-15T11:07:17.057Z,30
2016-04-15T11:08:17.092Z,30
2016-04-15T11:09:16.923Z,30
2016-04-15T11:10:17.082Z,30
2016-04-15T11:11:17.084Z,30
2016-04-15T11:12:17.087Z,30
2016-04-15T11:13:17.090Z,30
2016-04-15T11:14:17.092Z,25
2016-04-15T11:15:17.111Z,25
2016-04-15T11:16:17.113Z,25
2016-04-15T11:17:17.116Z,25
2016-04-15T11:18:17.118Z,20
2016-04-15T11:19:17.121Z,20
2016-04-15T11:20:17.139Z,15
2016-04-15T11:21:17.158Z,15
2016-04-15T11:22:17.145Z,20
2016-04-15T11:23:17.163Z,20
2016-04-15T11:24:17.166Z,20
2016-04-15T11:25:17.184Z,20
2016-04-15T11:26:17.171Z,20
2016-04-15T11:27:17.190Z,20
2016-04-15T11:28:17.208Z,20
2016-04-15T11:29:17.196Z,20
2016-04-15T11:30:17.214Z,20
2016-04-15T11:31:17.216Z,20
2016-04-15T11:32:17.313Z,15
2016-04-15T11:33:17.206Z,15
2016-04-15T11:34:17.240Z,15
2016-04-15T11:35:17.540Z,15
2016-04-15T11:36:17.245Z,15
2016-04-15T11:37:18.013Z,15
2016-04-15T11:38:17.265Z,15
2016-04-15T11:39:17.285Z,15
2016-04-15T11:40:17.271Z,15
2016-04-15T11:41:17.290Z,15
2016-04-15T11:42:17.292Z,20
2016-04-15T11:43:17.295Z,20
2016-04-15T11:44:17.298Z,20
2016-04-15T11:45:17.300Z,20
2016-04-15T11:46:17.303Z,20
2016-04-15T11:47:17.494Z,20
2016-04-15T11:48:17.339Z,15
2016-04-15T11:49:17.342Z,15
2016-04-15T11:50:17.345Z,15
2016-04-15T11:51:17.347Z,15
2016-04-15T11:52:17.350Z,15
2016-04-15T11:53:17.369Z,15
2016-04-15T11:54:17.371Z,15
2016-04-15T11:55:17.296Z,15
2016-04-15T11:56:17.393Z,15
2016-04-15T11:57:17.396Z,15
2016-04-15T11:58:17.258Z,15
2016-04-15T11:59:17.416Z,15
2016-04-15T12:00:17.419Z,15
2016-04-15T12:01:17.421Z,15
2016-04-15T12:02:17.612Z,15
2016-04-15T12:03:17.426Z,15
2016-04-15T12:04:17.445Z,15
2016-04-15T12:05:17.448Z,15
2016-04-15T12:06:17.466Z,15
2016-04-15T12:07:18.250Z,15
2016-04-15T12:08:17.488Z,15
2016-04-15T12:09:17.115Z,15
2016-04-15T12:10:18.120Z,15
2016-04-15T12:11:17.514Z,15
2016-04-15T12:12:17.516Z,15
2016-04-15T12:13:17.503Z,15
2016-04-15T12:14:17.505Z,15
2016-04-15T12:15:18.071Z,15
2016-04-15T12:16:17.401Z,15
2016-04-15T12:17:17.764Z,15
2016-04-15T12:18:17.391Z,15
2016-04-15T12:19:17.550Z,15
2016-04-15T12:20:17.553Z,15
2016-04-15T12:21:17.571Z,15
2016-04-15T12:22:17.402Z,15
2016-04-15T12:23:17.576Z,15
2016-04-15T12:24:17.595Z,15
2016-04-15T12:25:17.582Z,15
2016-04-15T12:26:17.594Z,15
2016-04-15T12:27:17.597Z,15
2016-04-15T12:28:17.615Z,15
2016-04-15T12:29:17.462Z,15
2016-04-15T12:30:17.621Z,15
2016-04-15T12:31:17.639Z,15
2016-04-15T12:32:17.517Z,15
2016-04-15T12:33:17.660Z,15
2016-04-15T12:34:17.694Z,15
2016-04-15T12:35:17.666Z,15
2016-04-15T12:36:17.684Z,15
2016-04-15T12:37:17.687Z,15
2016-04-15T12:38:17.689Z,15
2016-04-15T12:39:17.677Z,10
2016-04-15T12:40:17.710Z,10
2016-04-15T12:41:17.682Z,10
2016-04-15T12:42:17.700Z,10
2016-04-15T12:43:17.718Z,15
2016-04-15T12:44:17.721Z,15
2016-04-15T12:45:17.738Z,10
2016-04-15T12:46:17.742Z,15
2016-04-15T12:47:17.666Z,15
2016-04-15T12:48:17.747Z,15
2016-04-15T12:49:17.782Z,15
2016-04-15T12:50:17.784Z,10
2016-04-15T12:51:17.787Z,15
2016-04-15T12:52:17.789Z,15
2016-04-15T12:53:17.792Z,15
2016-04-15T12:54:17.794Z,15
2016-04-15T12:55:17.797Z,15
2016-04-15T12:56:17.815Z,15
2016-04-15T12:57:17.818Z,15
2016-04-15T12:58:17.837Z,15
2016-04-15T12:59:17.839Z,15
2016-04-15T13:00:17.842Z,20
2016-04-15T13:01:17.860Z,20
2016-04-15T13:02:17.753Z,25
2016-04-15T13:03:17.866Z,25
2016-04-15T13:04:17.869Z,20
2016-04-15T13:05:17.887Z,20
2016-04-15T13:06:17.890Z,30
2016-04-15T13:07:17.892Z,30
2016-04-15T13:08:17.989Z,30
2016-04-15T13:09:17.897Z,25
2016-04-15T13:10:17.900Z,25
2016-04-15T13:11:17.918Z,20
2016-04-15T13:12:17.921Z,15
2016-04-15T13:13:17.939Z,15
2016-04-15T13:14:17.942Z,20
2016-04-15T13:15:17.945Z,20
2016-04-15T13:16:17.963Z,20
2016-04-15T13:17:17.966Z,20
2016-04-15T13:18:17.958Z,20
2016-04-15T13:19:17.960Z,20
2016-04-15T13:20:17.963Z,20
2016-04-15T13:21:17.981Z,20
2016-04-15T13:22:17.984Z,20
2016-04-15T13:23:18.003Z,20
2016-04-15T13:24:18.006Z,20
2016-04-15T13:25:18.023Z,20
2016-04-15T13:26:18.011Z,25
2016-04-15T13:27:18.029Z,30
2016-04-15T13:28:18.031Z,30
2016-04-15T13:29:18.034Z,25
2016-04-15T13:30:18.052Z,20
2016-04-15T13:31:18.070Z,20
2016-04-15T13:32:18.073Z,20
2016-04-15T13:33:18.076Z,15
2016-04-15T13:34:18.095Z,15
2016-04-15T13:35:18.097Z,20
2016-04-15T13:36:18.084Z,25
2016-04-15T13:37:18.103Z,20
2016-04-15T13:38:18.105Z,15
2016-04-15T13:39:18.139Z,15
2016-04-15T13:40:18.126Z,15
2016-04-15T13:41:18.129Z,15
2016-04-15T13:42:18.146Z,15
2016-04-15T13:43:18.149Z,15
2016-04-15T13:44:18.137Z,20
2016-04-15T13:45:18.155Z,25
2016-04-15T13:46:18.158Z,25
2016-04-15T13:47:18.177Z,20
2016-04-15T13:48:18.195Z,15
2016-04-15T13:49:18.182Z,20
2016-04-15T13:50:18.184Z,15
2016-04-15T13:51:18.188Z,15
2016-04-15T13:52:18.206Z,15
2016-04-15T13:53:18.209Z,15
2016-04-15T13:54:18.211Z,15
2016-04-15T13:55:18.229Z,15
2016-04-15T13:56:18.248Z,20
2016-04-15T13:57:18.250Z,20
2016-04-15T13:58:18.253Z,20
2016-04-15T13:59:18.255Z,15
2016-04-15T14:00:18.258Z,15
2016-04-15T14:01:18.276Z,20
2016-04-15T14:02:18.279Z,20
2016-04-15T14:03:18.282Z,20
2016-04-15T14:04:18.284Z,20
2016-04-15T14:05:18.303Z,20
2016-04-15T14:06:18.305Z,20
2016-04-15T14:07:18.324Z,25
2016-04-15T14:08:18.311Z,25
2016-04-15T14:09:18.329Z,25
2016-04-15T14:10:18.175Z,25
2016-04-15T14:11:18.334Z,20
2016-04-15T14:12:18.353Z,20
2016-04-15T14:13:18.355Z,20
2016-04-15T14:14:18.358Z,25
2016-04-15T14:15:18.361Z,30
2016-04-15T14:16:18.379Z,35
2016-04-15T14:17:18.366Z,35
2016-04-15T14:18:18.384Z,35
2016-04-15T14:19:18.419Z,35
2016-04-15T14:20:18.407Z,30
2016-04-15T14:21:18.409Z,30
2016-04-15T14:22:18.427Z,30
2016-04-15T14:23:18.429Z,30
2016-04-15T14:24:18.448Z,25
2016-04-15T14:25:18.435Z,30
2016-04-15T14:26:18.437Z,40
2016-04-15T14:27:18.456Z,35
2016-04-15T14:28:18.458Z,35
2016-04-15T14:29:18.477Z,30